Oluja — V7QE8 — position and weather

sailwx.info

Track history (hours):
 
Tides and Currents Weather Stations Pressure Air Temp Water Temp Dewpoint Dewpoint Depression Visibility Wind Speed Wind Dir Waves Ship Positions

Oluja

Last reported at 2015-May-06 05:21 UTC. Time now 2015-May-07 00:34 UTC.
Position N 37°21' E 002°56'.

Length 188 m; draft 7.2 m.

Type: Cargo ship. MMSI: 538003345.

Date/timePositionNaut miles runAvg speedWind from/ knotsBaromVisibWave heightAir tempDewpointWater temp
2015-May-06 05:21N 37°21' E 002°56'1814.6
2015-May-06 04:05N 37°17' E 002°34'814.0
2015-May-06 03:33N 37°15' E 002°25'1414.2
2015-May-06 02:33N 37°11' E 002°08'1414.4
2015-May-06 01:33N 37°07' E 001°51'2914.3
2015-May-05 23:32N 36°59' E 001°16'1514.3
2015-May-05 22:31N 36°55' E 000°58'3413.9
2015-May-05 20:05N 36°46' E 000°18'713.7
2015-May-05 19:33N 36°44' E 000°09'1313.6
2015-May-05 18:33N 36°41' W 000°07'1413.7
2015-May-05 17:33N 36°37' W 000°24'1413.6
2015-May-05 16:33N 36°34' W 000°40'1313.3
2015-May-05 15:33N 36°30' W 000°56'2013.5
2015-May-05 14:04N 36°24' W 001°20'913.2
2015-May-05 13:25N 36°22' W 001°30'1313.2
2015-May-05 12:25N 36°18' W 001°46'1113.1
2015-May-05 11:33N 36°15' W 001°60'1212.6
2015-May-05 10:33N 36°13' W 002°15'2712.7
2015-May-05 08:26N 36°11' W 002°48'11811.9
2015-May-04 22:32N 36°06' W 005°15'3 2.6
2015-May-04 21:33N 36°06' W 005°18'3 3.0
2015-May-04 20:31N 36°09' W 005°15'6 6.0
2015-May-04 19:33N 36°05' W 005°21'3 3.1
2015-May-04 18:29N 36°06' W 005°25'0 0.0
2015-May-04 15:20N 36°06' W 005°25'0 0.0
2015-May-04 14:23N 36°06' W 005°25'0 0.0
2015-May-04 13:32N 36°06' W 005°25'3 2.9
2015-May-04 12:21N 36°03' W 005°23'911.7
2015-May-04 11:33N 35°56' W 005°31'3712.5
2015-May-04 08:33N 35°53' W 006°17'6813.6
2015-May-04 03:32N 35°35' W 007°38'3213.7
2015-May-04 01:13N 35°27' W 008°16'1113.9
2015-May-04 00:26N 35°24' W 008°29'1613.6
2015-May-03 23:18N 35°20' W 008°47'1013.8
2015-May-03 22:33N 35°17' W 008°60'1413.8
2015-May-03 21:30N 35°13' W 009°17'1313.7
2015-May-03 20:33N 35°10' W 009°32'1313.3
2015-May-03 19:33N 35°06' W 009°47'1513.3
2015-May-03 18:26N 35°03' W 010°05'1212.9
2015-May-03 17:32N 34°60' W 010°19'2913.3
2015-May-03 15:22N 34°52' W 010°53'  
Track history (hours):
 
Tides and Currents Weather Stations Pressure Air Temp Water Temp Dewpoint Dewpoint Depression Visibility Wind Speed Wind Dir Waves Ship Positions

Oluja

Last reported at 2015-May-06 05:21 UTC. Time now 2015-May-07 00:34 UTC.
Position N 37°21' E 002°56'.

Length 188 m; draft 7.2 m.

Type: Cargo ship. MMSI: 538003345.

Date/timePositionNaut miles runAvg speedWind from/ knotsBaromVisibWave heightAir tempDewpointWater temp
2015-May-06 05:21N 37°21' E 002°56'1814.6
2015-May-06 04:05N 37°17' E 002°34'814.0
2015-May-06 03:33N 37°15' E 002°25'1414.2
2015-May-06 02:33N 37°11' E 002°08'1414.4
2015-May-06 01:33N 37°07' E 001°51'2914.3
2015-May-05 23:32N 36°59' E 001°16'1514.3
2015-May-05 22:31N 36°55' E 000°58'3413.9
2015-May-05 20:05N 36°46' E 000°18'713.7
2015-May-05 19:33N 36°44' E 000°09'1313.6
2015-May-05 18:33N 36°41' W 000°07'1413.7
2015-May-05 17:33N 36°37' W 000°24'1413.6
2015-May-05 16:33N 36°34' W 000°40'1313.3
2015-May-05 15:33N 36°30' W 000°56'2013.5
2015-May-05 14:04N 36°24' W 001°20'913.2
2015-May-05 13:25N 36°22' W 001°30'1313.2
2015-May-05 12:25N 36°18' W 001°46'1113.1
2015-May-05 11:33N 36°15' W 001°60'1212.6
2015-May-05 10:33N 36°13' W 002°15'2712.7
2015-May-05 08:26N 36°11' W 002°48'11811.9
2015-May-04 22:32N 36°06' W 005°15'3 2.6
2015-May-04 21:33N 36°06' W 005°18'3 3.0
2015-May-04 20:31N 36°09' W 005°15'6 6.0
2015-May-04 19:33N 36°05' W 005°21'3 3.1
2015-May-04 18:29N 36°06' W 005°25'0 0.0
2015-May-04 15:20N 36°06' W 005°25'0 0.0
2015-May-04 14:23N 36°06' W 005°25'0 0.0
2015-May-04 13:32N 36°06' W 005°25'3 2.9
2015-May-04 12:21N 36°03' W 005°23'911.7
2015-May-04 11:33N 35°56' W 005°31'3712.5
2015-May-04 08:33N 35°53' W 006°17'6813.6
2015-May-04 03:32N 35°35' W 007°38'3213.7
2015-May-04 01:13N 35°27' W 008°16'1113.9
2015-May-04 00:26N 35°24' W 008°29'1613.6
2015-May-03 23:18N 35°20' W 008°47'1013.8
2015-May-03 22:33N 35°17' W 008°60'1413.8
2015-May-03 21:30N 35°13' W 009°17'1313.7
2015-May-03 20:33N 35°10' W 009°32'1313.3
2015-May-03 19:33N 35°06' W 009°47'1513.3
2015-May-03 18:26N 35°03' W 010°05'1212.9
2015-May-03 17:32N 34°60' W 010°19'2913.3
2015-May-03 15:22N 34°52' W 010°53'  

Dump ship's entire track history